Elbella — 9HA2358 — position and weather

sailwx.info

Track history (hours):
 
Tides and Currents Weather Stations Pressure Air Temp Water Temp Dewpoint Dewpoint Depression Visibility Wind Speed Wind Dir Waves Ship Positions

Elbella

Last reported at 2016-Apr-30 08:15 UTC. Time now 2016-May-02 03:41 UTC.
Position N 35°08' E 031°50'.

Length 176 m; draft 8 m.

Type: Ship (hazmat cat A). MMSI: 248422000.

Date/timePositionNaut miles runAvg speedWind from/ knotsBaromVisibWave heightAir tempDewpointWater temp
2016-Apr-30 08:15N 35°08' E 031°50'3017.5
2016-Apr-30 06:33N 34°42' E 032°07'3417.0
2016-Apr-30 04:33N 34°23' E 032°41'1817.5
2016-Apr-30 03:32N 34°19' E 033°02'1717.3
2016-Apr-30 02:32N 34°15' E 033°22'1817.6
2016-Apr-30 01:33N 34°11' E 033°43'2317.3
2016-Apr-30 00:14N 34°06' E 034°09'1217.0
2016-Apr-29 23:33N 34°03' E 034°23'1717.4
2016-Apr-29 22:33N 33°59' E 034°43'1817.7
2016-Apr-29 21:33N 33°56' E 035°04'1817.5
2016-Apr-29 20:33N 33°56' E 035°25'  
2016-Apr-26 18:15N 34°55' E 035°51'1 0.9
2016-Apr-26 17:32N 34°55' E 035°50'7 3.5
2016-Apr-26 15:31N 34°55' E 035°42'1313.4
2016-Apr-26 14:33N 34°45' E 035°31'1716.8
2016-Apr-26 13:33N 34°29' E 035°25'1716.7
2016-Apr-26 12:33N 34°13' E 035°19'1616.1
2016-Apr-26 11:33N 33°58' E 035°13'1613.5
2016-Apr-26 10:24N 33°55' E 035°32'6 0.6
2016-Apr-26 01:33N 33°54' E 035°25'10 8.8
2016-Apr-26 00:28N 33°54' E 035°14'1111.9
2016-Apr-25 23:33N 33°58' E 035°01'2612.7
2016-Apr-25 21:33N 34°08' E 034°33'1313.2
2016-Apr-25 20:33N 34°13' E 034°19'1313.3
2016-Apr-25 19:33N 34°18' E 034°04'1313.0
2016-Apr-25 18:33N 34°22' E 033°49'1313.2
2016-Apr-25 17:33N 34°28' E 033°34'1514.9
2016-Apr-25 16:33N 34°34' E 033°18'1413.8
2016-Apr-25 15:33N 34°39' E 033°02'1 1.2
2016-Apr-25 14:33N 34°39' E 033°01'0 0.0
2016-Apr-25 13:33N 34°39' E 033°01'0 0.0
2016-Apr-25 12:33N 34°39' E 033°01'0 0.0
2016-Apr-25 11:33N 34°39' E 033°01'0 0.0
2016-Apr-25 10:33N 34°39' E 033°01'0 0.0
2016-Apr-25 09:33N 34°39' E 033°01'0 0.0
2016-Apr-25 08:33N 34°39' E 033°01'0 0.0
2016-Apr-25 07:33N 34°39' E 033°01'0 0.0
2016-Apr-25 06:24N 34°39' E 033°01'0 0.0
2016-Apr-25 05:30N 34°39' E 033°01'0 0.0
2016-Apr-25 04:33N 34°39' E 033°01'2 2.0
2016-Apr-25 03:34N 34°39' E 033°03'1 0.8
2016-Apr-25 02:33N 34°40' E 033°04'0 0.1
2016-Apr-25 01:33N 34°40' E 033°04'0 0.1
2016-Apr-25 00:33N 34°40' E 033°04'0 0.0
2016-Apr-24 23:33N 34°40' E 033°04'5 4.6
2016-Apr-24 22:33N 34°37' E 033°09'1917.1
2016-Apr-24 21:25N 34°18' E 033°07'1517.1
2016-Apr-24 20:33N 34°03' E 033°05'1717.0
2016-Apr-24 19:32N 33°46' E 033°03'1717.4
2016-Apr-24 18:34N 33°29' E 033°01'1717.2
2016-Apr-24 17:33N 33°12' E 032°59'1717.0
2016-Apr-24 16:34N 32°55' E 032°57'1717.1
2016-Apr-24 15:34N 32°38' E 032°55'1717.3
2016-Apr-24 14:34N 32°21' E 032°53'1717.3
2016-Apr-24 13:34N 32°04' E 032°51'1716.9
2016-Apr-24 12:33N 31°47' E 032°47'1717.1
2016-Apr-24 11:34N 31°38' E 032°30'1515.2
2016-Apr-24 10:33N 31°24' E 032°25'1111.4
2016-Apr-24 09:34N 31°13' E 032°21'11 0.9
2016-Apr-23 22:15N 31°23' E 032°24'812.0
2016-Apr-23 21:33N 31°28' E 032°16'1816.2
2016-Apr-23 20:28N 31°41' E 032°02'1213.6
2016-Apr-23 19:34N 31°37' E 031°48'10 3.2
2016-Apr-23 16:30N 31°28' E 031°46'0 0.0
2016-Apr-23 15:23N 31°28' E 031°46'0 0.0
2016-Apr-23 12:04N 31°28' E 031°46'8 5.4
2016-Apr-23 10:34N 31°36' E 031°47'1 1.2
2016-Apr-23 09:33N 31°37' E 031°46'0 0.0
2016-Apr-23 08:33N 31°37' E 031°46'0 0.0
2016-Apr-23 07:33N 31°37' E 031°46'0 0.0
2016-Apr-23 06:34N 31°37' E 031°46'50 9.6
2016-Apr-23 01:20N 31°43' E 030°48'4114.7
2016-Apr-22 22:33N 31°27' E 030°04'1715.4
2016-Apr-22 21:26N 31°14' E 029°50'  
Track history (hours):
 
Tides and Currents Weather Stations Pressure Air Temp Water Temp Dewpoint Dewpoint Depression Visibility Wind Speed Wind Dir Waves Ship Positions

Elbella

Last reported at 2016-Apr-30 08:15 UTC. Time now 2016-May-02 03:41 UTC.
Position N 35°08' E 031°50'.

Length 176 m; draft 8 m.

Type: Ship (hazmat cat A). MMSI: 248422000.

Date/timePositionNaut miles runAvg speedWind from/ knotsBaromVisibWave heightAir tempDewpointWater temp
2016-Apr-30 08:15N 35°08' E 031°50'3017.5
2016-Apr-30 06:33N 34°42' E 032°07'3417.0
2016-Apr-30 04:33N 34°23' E 032°41'1817.5
2016-Apr-30 03:32N 34°19' E 033°02'1717.3
2016-Apr-30 02:32N 34°15' E 033°22'1817.6
2016-Apr-30 01:33N 34°11' E 033°43'2317.3
2016-Apr-30 00:14N 34°06' E 034°09'1217.0
2016-Apr-29 23:33N 34°03' E 034°23'1717.4
2016-Apr-29 22:33N 33°59' E 034°43'1817.7
2016-Apr-29 21:33N 33°56' E 035°04'1817.5
2016-Apr-29 20:33N 33°56' E 035°25'  
2016-Apr-26 18:15N 34°55' E 035°51'1 0.9
2016-Apr-26 17:32N 34°55' E 035°50'7 3.5
2016-Apr-26 15:31N 34°55' E 035°42'1313.4
2016-Apr-26 14:33N 34°45' E 035°31'1716.8
2016-Apr-26 13:33N 34°29' E 035°25'1716.7
2016-Apr-26 12:33N 34°13' E 035°19'1616.1
2016-Apr-26 11:33N 33°58' E 035°13'1613.5
2016-Apr-26 10:24N 33°55' E 035°32'6 0.6
2016-Apr-26 01:33N 33°54' E 035°25'10 8.8
2016-Apr-26 00:28N 33°54' E 035°14'1111.9
2016-Apr-25 23:33N 33°58' E 035°01'2612.7
2016-Apr-25 21:33N 34°08' E 034°33'1313.2
2016-Apr-25 20:33N 34°13' E 034°19'1313.3
2016-Apr-25 19:33N 34°18' E 034°04'1313.0
2016-Apr-25 18:33N 34°22' E 033°49'1313.2
2016-Apr-25 17:33N 34°28' E 033°34'1514.9
2016-Apr-25 16:33N 34°34' E 033°18'1413.8
2016-Apr-25 15:33N 34°39' E 033°02'1 1.2
2016-Apr-25 14:33N 34°39' E 033°01'0 0.0
2016-Apr-25 13:33N 34°39' E 033°01'0 0.0
2016-Apr-25 12:33N 34°39' E 033°01'0 0.0
2016-Apr-25 11:33N 34°39' E 033°01'0 0.0
2016-Apr-25 10:33N 34°39' E 033°01'0 0.0
2016-Apr-25 09:33N 34°39' E 033°01'0 0.0
2016-Apr-25 08:33N 34°39' E 033°01'0 0.0
2016-Apr-25 07:33N 34°39' E 033°01'0 0.0
2016-Apr-25 06:24N 34°39' E 033°01'0 0.0
2016-Apr-25 05:30N 34°39' E 033°01'0 0.0
2016-Apr-25 04:33N 34°39' E 033°01'2 2.0
2016-Apr-25 03:34N 34°39' E 033°03'1 0.8
2016-Apr-25 02:33N 34°40' E 033°04'0 0.1
2016-Apr-25 01:33N 34°40' E 033°04'0 0.1
2016-Apr-25 00:33N 34°40' E 033°04'0 0.0
2016-Apr-24 23:33N 34°40' E 033°04'5 4.6
2016-Apr-24 22:33N 34°37' E 033°09'1917.1
2016-Apr-24 21:25N 34°18' E 033°07'1517.1
2016-Apr-24 20:33N 34°03' E 033°05'1717.0
2016-Apr-24 19:32N 33°46' E 033°03'1717.4
2016-Apr-24 18:34N 33°29' E 033°01'1717.2
2016-Apr-24 17:33N 33°12' E 032°59'1717.0
2016-Apr-24 16:34N 32°55' E 032°57'1717.1
2016-Apr-24 15:34N 32°38' E 032°55'1717.3
2016-Apr-24 14:34N 32°21' E 032°53'1717.3
2016-Apr-24 13:34N 32°04' E 032°51'1716.9
2016-Apr-24 12:33N 31°47' E 032°47'1717.1
2016-Apr-24 11:34N 31°38' E 032°30'1515.2
2016-Apr-24 10:33N 31°24' E 032°25'1111.4
2016-Apr-24 09:34N 31°13' E 032°21'11 0.9
2016-Apr-23 22:15N 31°23' E 032°24'812.0
2016-Apr-23 21:33N 31°28' E 032°16'1816.2
2016-Apr-23 20:28N 31°41' E 032°02'1213.6
2016-Apr-23 19:34N 31°37' E 031°48'10 3.2
2016-Apr-23 16:30N 31°28' E 031°46'0 0.0
2016-Apr-23 15:23N 31°28' E 031°46'0 0.0
2016-Apr-23 12:04N 31°28' E 031°46'8 5.4
2016-Apr-23 10:34N 31°36' E 031°47'1 1.2
2016-Apr-23 09:33N 31°37' E 031°46'0 0.0
2016-Apr-23 08:33N 31°37' E 031°46'0 0.0
2016-Apr-23 07:33N 31°37' E 031°46'0 0.0
2016-Apr-23 06:34N 31°37' E 031°46'50 9.6
2016-Apr-23 01:20N 31°43' E 030°48'4114.7
2016-Apr-22 22:33N 31°27' E 030°04'1715.4
2016-Apr-22 21:26N 31°14' E 029°50'  

Dump ship's entire track history